Flight Track Log - Related Links

Times and Time Zones

All times are in EDT time to prevent confusion due to time zone crossing. See the EJA922 flight status page for this flight to view local times or setup timezone preferences in your user account.

Time Position Orientation Groundspeed Altitude Reporting Facility
EDT Latitude Longitude Course Direction KTS MPH feet Rate Location/Type
Tue 11:53:33 AM 35.1289 -106.8244 270° West 180 207 6,800  Level Albuquerque Center
Tue 11:54:16 AM 35.1292 -106.8764 270° West 231 266 7,900 2,045 Climbing Albuquerque Center
Tue 11:55:01 AM 35.1472 -106.9208 296° West 250 288 9,800 2,187 Climbing Albuquerque Center
Tue 11:56:03 AM 35.2144 -106.8736 30° Northeast 337 388 11,800 2,274 Climbing Albuquerque Center
Tue 11:57:05 AM 35.2336 -106.7406 80° East 390 449 14,500 2,468 Climbing Albuquerque Center
Tue 11:58:07 AM 35.2350 -106.6003 89° East 408 470 16,900 2,177 Climbing Albuquerque Center
Tue 11:59:09 AM 35.2339 -106.4378 90° East 415 478 19,000 1,887 Climbing Albuquerque Center
Tue 12:00:11 PM 35.2325 -106.2981 91° East 414 476 20,800 1,610 Climbing Albuquerque Center
Tue 12:01:12 PM 35.2303 -106.1583 91° East 414 476 22,300 1,463 Climbing Albuquerque Center
Tue 12:02:14 PM 35.2289 -106.0131 91° East 426 490 23,800 1,597 Climbing Albuquerque Center
Tue 12:03:16 PM 35.2261 -105.8353 91° East 438 504 25,600 1,597 Climbing Albuquerque Center
Tue 12:04:18 PM 35.2242 -105.6867 91° East 440 506 27,100 1,306 Climbing Albuquerque Center
Tue 12:05:20 PM 35.2217 -105.5392 91° East 447 514 28,300 1,210 Climbing Albuquerque Center
Tue 12:06:22 PM 35.2189 -105.3808 91° East 458 527 29,600 1,258 Climbing Albuquerque Center
Tue 12:07:24 PM 35.2167 -105.1922 91° East 468 539 30,900 1,113 Climbing Albuquerque Center
Tue 12:08:26 PM 35.2136 -105.0250 91° East 482 555 31,900 871 Climbing Albuquerque Center
Tue 12:09:28 PM 35.2108 -104.8550 91° East 493 567 32,700 537 Climbing Albuquerque Center
Tue 12:10:29 PM 35.2075 -104.6814 91° East 503 579 33,000 146 Climbing Albuquerque Center
Tue 12:11:31 PM 35.2014 -104.4978 92° East 525 604 33,000 194 Level Albuquerque Center
Tue 12:12:33 PM 35.2008 -104.3144 90° East 537 618 33,400 677 Climbing Albuquerque Center
Tue 12:13:35 PM 35.2000 -104.1350 90° East 534 615 34,400 968 Climbing Albuquerque Center
Tue 12:14:37 PM 35.2081 -103.9603 87° East 523 602 35,400 1,065 Climbing Albuquerque Center
Tue 12:15:39 PM 35.2217 -103.7625 85° East 520 598 36,600 1,306 Climbing Albuquerque Center
Tue 12:16:41 PM 35.2306 -103.5850 86° East 520 598 38,100 1,161 Climbing Albuquerque Center
Tue 12:17:43 PM 35.2386 -103.4100 87° East 515 593 39,000 435 Climbing Albuquerque Center
Tue 12:18:45 PM 35.2450 -103.2258 88° East 530 610 39,000  Level Albuquerque Center
Tue 12:19:47 PM 35.2433 -103.0081 90° East 543 625 39,000  Level Albuquerque Center
Tue 12:20:49 PM 35.2406 -102.8506 91° East 542 624 39,000  Level Albuquerque Center
Tue 12:21:51 PM 35.2381 -102.6314 91° East 539 620 39,000  Level Albuquerque Center
Tue 12:22:53 PM 35.2356 -102.4483 91° East 540 621 39,000  Level Albuquerque Center
Tue 12:23:55 PM 35.2336 -102.2661 91° East 538 619 39,000  Level Albuquerque Center
Tue 12:24:57 PM 35.2306 -102.0831 91° East 540 621 39,000  Level Albuquerque Center
Tue 12:25:59 PM 35.2289 -101.8986 91° East 540 621 39,000  Level Albuquerque Center
Tue 12:27:01 PM 35.2264 -101.6839 91° East 540 621 39,000  Level Albuquerque Center
Tue 12:28:03 PM 35.2225 -101.5131 92° East 541 623 39,000  Level Albuquerque Center
Tue 12:29:05 PM 35.2189 -101.3306 91° East 538 619 39,000  Level Albuquerque Center
Tue 12:30:07 PM 35.2139 -101.1486 92° East 542 624 39,000  Level Albuquerque Center
Tue 12:31:09 PM 35.2094 -100.9322 91° East 534 615 39,000  Level Albuquerque Center
Tue 12:32:11 PM 35.2044 -100.7503 92° East 536 617 39,000  Level Albuquerque Center
Tue 12:33:13 PM 35.1994 -100.5650 92° East 536 617 39,000  Level Albuquerque Center
Tue 12:34:15 PM 35.1947 -100.3828 92° East 537 618 39,000  Level Albuquerque Center
Tue 12:35:17 PM 35.1897 -100.2017 92° East 536 617 39,000  Level Albuquerque Center
Tue 12:36:19 PM 35.1836 -100.0197 92° East 536 617 39,000  Level Albuquerque Center
Tue 12:37:22 PM 35.1756 -99.8033 93° East 534 615 39,000  Level Albuquerque Center
Tue 12:38:24 PM 35.1694 -99.6219 92° East 535 616 39,000  Level Albuquerque Center
Tue 12:39:26 PM 35.1636 -99.4400 92° East 536 617 39,000  Level Albuquerque Center
Tue 12:40:09 PM 35.1564 -99.2953 93° East 536 617 39,000  Level Fort Worth Center
Tue 12:41:09 PM 35.1486 -99.1122 93° East 536 617 39,000  Level Fort Worth Center
Tue 12:42:09 PM 35.1425 -98.9317 92° East 536 617 39,000  Level Fort Worth Center
Tue 12:43:09 PM 35.1364 -98.7489 92° East 536 617 39,000  Level Fort Worth Center
Tue 12:44:09 PM 35.1278 -98.5661 93° East 536 617 39,000  Level Fort Worth Center
Tue 12:45:09 PM 35.1206 -98.4136 93° East 531 611 39,000  Level Fort Worth Center
Tue 12:46:09 PM 35.1117 -98.2283 93° East 526 605 39,000  Level Fort Worth Center
Tue 12:47:09 PM 35.1022 -98.0481 94° East 533 613 39,000  Level Fort Worth Center
Tue 12:48:09 PM 35.0925 -97.8653 94° East 538 619 39,000  Level Fort Worth Center
Tue 12:49:09 PM 35.0828 -97.6850 94° East 538 619 39,000  Level Fort Worth Center
Tue 12:50:09 PM 35.0725 -97.5022 94° East 538 619 39,000  Level Fort Worth Center
Tue 12:51:09 PM 35.0600 -97.2994 94° East 543 625 39,000  Level Fort Worth Center
Tue 12:52:09 PM 35.0492 -97.1144 94° East 543 625 39,000  Level Fort Worth Center
Tue 12:53:09 PM 35.0403 -96.9342 93° East 543 625 39,000  Level Fort Worth Center
Tue 12:54:09 PM 35.0311 -96.7517 93° East 537 618 39,000  Level Fort Worth Center
Tue 12:55:09 PM 35.0197 -96.5667 94° East 537 618 39,000  Level Fort Worth Center
Tue 12:56:09 PM 35.0100 -96.3869 94° East 537 618 39,000  Level Fort Worth Center
Tue 12:57:09 PM 34.9978 -96.2019 95° East 537 618 39,000  Level Fort Worth Center
Tue 12:58:09 PM 34.9856 -96.0172 95° East 537 618 39,000  Level Fort Worth Center
Tue 12:59:09 PM 34.9772 -95.8400 93° East 537 618 39,000  Level Fort Worth Center
Tue 01:00:09 PM 34.9642 -95.6553 95° East 529 609 39,000  Level Fort Worth Center
Tue 01:02:19 PM 34.9381 -95.2611 95° East 552 635 39,000  Level Memphis Center
Tue 01:03:19 PM 34.9242 -95.0806 95° East 542 624 39,000  Level Memphis Center
Tue 01:04:19 PM 34.9081 -94.8975 96° East 542 624 39,000 -200 Level Memphis Center
Tue 01:05:19 PM 34.8956 -94.7194 95° East 542 624 38,600 -1,250 Descending Memphis Center
Tue 01:06:19 PM 34.8847 -94.5544 95° East 542 624 36,500 -2,400 Descending Memphis Center
Tue 01:07:19 PM 34.8697 -94.3739 96° East 542 624 33,800 -2,700 Descending Memphis Center
Tue 01:08:19 PM 34.8569 -94.1836 95° East 548 631 31,100 -2,850 Descending Memphis Center
Tue 01:09:19 PM 34.8375 -93.9956 97° East 558 642 28,100 -2,900 Descending Memphis Center
Tue 01:10:19 PM 34.8258 -93.8178 95° East 552 635 25,300 -2,800 Descending Memphis Center
Tue 01:11:19 PM 34.8097 -93.6478 97° East 528 608 22,500 -2,750 Descending Memphis Center
Tue 01:12:19 PM 34.7972 -93.4803 95° East 508 585 19,800 -2,650 Descending Memphis Center
Tue 01:13:19 PM 34.7825 -93.3206 96° East 495 570 17,200 -2,550 Descending Memphis Center
Tue 01:14:19 PM 34.7692 -93.1658 96° East 475 547 14,700 -2,545 Descending Memphis Center
Tue 01:14:58 PM 34.7589 -93.0644 97° East 448 516 13,000 -2,286 Descending Memphis Center
Tue 01:16:04 PM 34.7436 -92.9072 97° East 407 468 10,700 -1,465 Descending Memphis Center
Tue 01:17:05 PM 34.7333 -92.7856 96° East 309 356 9,900 -1,230 Descending Memphis Center
Tue 01:18:06 PM 34.7228 -92.6944 98° East 281 323 8,200 -1,636 Descending Memphis Center
Tue 01:19:06 PM 34.7142 -92.5906 96° East 295 339 6,600 -1,587 Descending Memphis Center
Tue 01:20:07 PM 34.7075 -92.4944 95° East 296 341 5,000 -1,219 Descending Memphis Center
Tue 01:21:14 PM 34.7344 -92.3864 73° East 293 337 4,000 -992 Descending Memphis Center
Tue 01:22:14 PM 34.7647 -92.3061 65° Northeast 240 276 2,900 -1,200 Descending Memphis Center
Tue 01:23:19 PM 34.7761 -92.2458 77° East 225 259 1,500 -960 Descending Memphis Center
Tue 01:24:19 PM 34.7750 -92.1900 91° East 172 198 900 -600 Descending Memphis Center
Tue 01:31:00 PM 34.7294 -92.2248 251° West  Level Estimated
Tue 01:38:00 PM 34.7294 -92.2248 251° West  Level Estimated
Tue 01:39:00 PM 34.7294 -92.2248 251° West  Level Estimated

Login

Don't have an account? Register now (free) for customized features, flight alerts, and more!